sensor_id;sensor_type;location;lat;lon;timestamp;pressure;altitude;pressure_sealevel;temperature;humidity
81822;BME280;72257;52.384;4.882;2024-03-08T00:00:08;79841.66;;;-145.99;100.00
81822;BME280;72257;52.384;4.882;2024-03-08T00:02:38;79039.13;;;-145.99;100.00
81822;BME280;72257;52.384;4.882;2024-03-08T00:05:05;78835.41;;;-145.99;100.00
81822;BME280;72257;52.384;4.882;2024-03-08T00:07:31;78858.28;;;-145.99;100.00
81822;BME280;72257;52.384;4.882;2024-03-08T00:09:56;78326.13;;;-145.99;100.00
81822;BME280;72257;52.384;4.882;2024-03-08T00:12:21;76638.75;;;-145.99;100.00
81822;BME280;72257;52.384;4.882;2024-03-08T00:14:47;75747.53;;;-145.99;100.00
81822;BME280;72257;52.384;4.882;2024-03-08T00:17:12;75078.75;;;-145.99;100.00
81822;BME280;72257;52.384;4.882;2024-03-08T00:19:37;74169.19;;;-145.99;100.00
81822;BME280;72257;52.384;4.882;2024-03-08T00:22:03;73004.53;;;-145.99;100.00
81822;BME280;72257;52.384;4.882;2024-03-08T00:24:28;72444.09;;;-145.99;100.00
81822;BME280;72257;52.384;4.882;2024-03-08T00:26:54;72477.31;;;-145.99;100.00
81822;BME280;72257;52.384;4.882;2024-03-08T00:29:20;71985.47;;;-145.99;100.00
81822;BME280;72257;52.384;4.882;2024-03-08T00:31:45;71261.28;;;-145.99;100.00
81822;BME280;72257;52.384;4.882;2024-03-08T00:34:10;70506.09;;;-145.99;100.00
81822;BME280;72257;52.384;4.882;2024-03-08T00:36:37;70242.66;;;-145.99;100.00
81822;BME280;72257;52.384;4.882;2024-03-08T00:39:02;69641.16;;;-145.99;100.00
81822;BME280;72257;52.384;4.882;2024-03-08T00:41:31;69155.88;;;-145.99;100.00
81822;BME280;72257;52.384;4.882;2024-03-08T00:43:57;68909.09;;;-145.99;100.00
81822;BME280;72257;52.384;4.882;2024-03-08T00:46:23;68676.84;;;-145.99;100.00
81822;BME280;72257;52.384;4.882;2024-03-08T00:48:48;68318.16;;;-145.99;100.00
81822;BME280;72257;52.384;4.882;2024-03-08T00:51:13;68139.84;;;-145.99;100.00
81822;BME280;72257;52.384;4.882;2024-03-08T00:53:40;67982.28;;;-145.99;100.00
81822;BME280;72257;52.384;4.882;2024-03-08T00:56:07;67443.31;;;-145.99;100.00
81822;BME280;72257;52.384;4.882;2024-03-08T00:58:36;67296.13;;;-145.99;100.00
81822;BME280;72257;52.384;4.882;2024-03-08T01:01:02;66703.38;;;-145.99;100.00
81822;BME280;72257;52.384;4.882;2024-03-08T01:03:27;66589.38;;;-145.99;100.00
81822;BME280;72257;52.384;4.882;2024-03-08T01:05:53;66639.13;;;-145.99;100.00
81822;BME280;72257;52.384;4.882;2024-03-08T01:08:18;66483.69;;;-145.99;100.00
81822;BME280;72257;52.384;4.882;2024-03-08T01:10:44;66421.53;;;-145.99;100.00
81822;BME280;72257;52.384;4.882;2024-03-08T01:13:09;66284.75;;;-145.99;100.00
81822;BME280;72257;52.384;4.882;2024-03-08T01:15:35;66241.22;;;-145.99;100.00
81822;BME280;72257;52.384;4.882;2024-03-08T01:18:00;66094.09;;;-145.99;100.00
81822;BME280;72257;52.384;4.882;2024-03-08T01:20:26;65986.34;;;-145.99;100.00
81822;BME280;72257;52.384;4.882;2024-03-08T01:22:52;66106.53;;;-145.99;100.00
81822;BME280;72257;52.384;4.882;2024-03-08T01:25:17;66065.09;;;-145.99;100.00
81822;BME280;72257;52.384;4.882;2024-03-08T01:27:42;66170.78;;;-145.99;100.00
81822;BME280;72257;52.384;4.882;2024-03-08T01:30:08;66373.84;;;-145.99;100.00
81822;BME280;72257;52.384;4.882;2024-03-08T01:32:34;66436.03;;;-145.99;100.00
81822;BME280;72257;52.384;4.882;2024-03-08T01:35:00;66245.38;;;-145.99;100.00
81822;BME280;72257;52.384;4.882;2024-03-08T01:37:26;66315.81;;;-145.99;100.00
81822;BME280;72257;52.384;4.882;2024-03-08T01:39:51;66048.50;;;-145.99;100.00
81822;BME280;72257;52.384;4.882;2024-03-08T01:42:17;65930.41;;;-145.99;100.00
81822;BME280;72257;52.384;4.882;2024-03-08T01:44:43;66065.09;;;-145.99;100.00
81822;BME280;72257;52.384;4.882;2024-03-08T01:47:09;66104.47;;;-145.99;100.00
81822;BME280;72257;52.384;4.882;2024-03-08T01:49:36;66425.66;;;-145.99;100.00
81822;BME280;72257;52.384;4.882;2024-03-08T01:52:02;66759.31;;;-145.99;100.00
81822;BME280;72257;52.384;4.882;2024-03-08T01:54:28;66502.34;;;-145.99;100.00
81822;BME280;72257;52.384;4.882;2024-03-08T01:56:56;66438.09;;;-145.99;100.00
81822;BME280;72257;52.384;4.882;2024-03-08T01:59:23;66860.88;;;-145.99;100.00
81822;BME280;72257;52.384;4.882;2024-03-08T02:01:49;66881.59;;;-145.99;100.00
81822;BME280;72257;52.384;4.882;2024-03-08T02:04:15;66844.28;;;-145.99;100.00
81822;BME280;72257;52.384;4.882;2024-03-08T02:06:41;66678.50;;;-145.99;100.00
81822;BME280;72257;52.384;4.882;2024-03-08T02:09:07;66693.00;;;-145.99;100.00
81822;BME280;72257;52.384;4.882;2024-03-08T02:11:34;66541.72;;;-145.99;100.00
81822;BME280;72257;52.384;4.882;2024-03-08T02:13:59;66595.59;;;-145.99;100.00
81822;BME280;72257;52.384;4.882;2024-03-08T02:16:25;66666.06;;;-145.99;100.00
81822;BME280;72257;52.384;4.882;2024-03-08T02:18:50;66601.81;;;-145.99;100.00
81822;BME280;72257;52.384;4.882;2024-03-08T02:21:17;66732.38;;;-145.99;100.00
81822;BME280;72257;52.384;4.882;2024-03-08T02:23:46;67236.03;;;-145.99;100.00
81822;BME280;72257;52.384;4.882;2024-03-08T02:26:11;67459.88;;;-145.99;100.00
81822;BME280;72257;52.384;4.882;2024-03-08T02:28:37;67347.97;;;-145.99;100.00
81822;BME280;72257;52.384;4.882;2024-03-08T02:31:03;67165.56;;;-145.99;100.00
81822;BME280;72257;52.384;4.882;2024-03-08T02:33:33;66935.50;;;-145.99;100.00
81822;BME280;72257;52.384;4.882;2024-03-08T02:35:58;67020.47;;;-145.99;100.00
81822;BME280;72257;52.384;4.882;2024-03-08T02:38:24;66935.50;;;-145.99;100.00
81822;BME280;72257;52.384;4.882;2024-03-08T02:40:50;66846.38;;;-145.99;100.00
81822;BME280;72257;52.384;4.882;2024-03-08T02:43:17;66848.44;;;-145.99;100.00
81822;BME280;72257;52.384;4.882;2024-03-08T02:45:43;66579.03;;;-145.99;100.00
81822;BME280;72257;52.384;4.882;2024-03-08T02:48:09;66579.03;;;-145.99;100.00
81822;BME280;72257;52.384;4.882;2024-03-08T02:50:35;66288.88;;;-145.99;100.00
81822;BME280;72257;52.384;4.882;2024-03-08T02:53:01;65874.47;;;-145.99;100.00
81822;BME280;72257;52.384;4.882;2024-03-08T02:55:26;65862.03;;;-145.99;100.00
81822;BME280;72257;52.384;4.882;2024-03-08T02:57:52;65804.00;;;-145.99;100.00
81822;BME280;72257;52.384;4.882;2024-03-08T03:00:20;65915.91;;;-145.99;100.00
81822;BME280;72257;52.384;4.882;2024-03-08T03:02:46;65897.25;;;-145.99;100.00
81822;BME280;72257;52.384;4.882;2024-03-08T03:05:12;65884.81;;;-145.99;100.00
81822;BME280;72257;52.384;4.882;2024-03-08T03:07:37;65687.97;;;-145.99;100.00
81822;BME280;72257;52.384;4.882;2024-03-08T03:10:03;65702.47;;;-145.99;100.00
81822;BME280;72257;52.384;4.882;2024-03-08T03:12:30;65480.78;;;-145.99;100.00
81822;BME280;72257;52.384;4.882;2024-03-08T03:14:56;65634.09;;;-145.99;100.00
81822;BME280;72257;52.384;4.882;2024-03-08T03:17:23;65822.66;;;-145.99;100.00
81822;BME280;72257;52.384;4.882;2024-03-08T03:19:48;65934.56;;;-145.99;100.00
81822;BME280;72257;52.384;4.882;2024-03-08T03:22:13;66220.50;;;-145.99;100.00
81822;BME280;72257;52.384;4.882;2024-03-08T03:24:41;66247.44;;;-145.99;100.00
81822;BME280;72257;52.384;4.882;2024-03-08T03:27:07;66535.50;;;-145.99;100.00
81822;BME280;72257;52.384;4.882;2024-03-08T03:29:39;66616.31;;;-145.99;100.00
81822;BME280;72257;52.384;4.882;2024-03-08T03:32:07;66726.16;;;-145.99;100.00
81822;BME280;72257;52.384;4.882;2024-03-08T03:34:33;67099.22;;;-145.99;100.00
81822;BME280;72257;52.384;4.882;2024-03-08T03:37:02;67097.16;;;-145.99;100.00
81822;BME280;72257;52.384;4.882;2024-03-08T03:39:28;66981.09;;;-145.99;100.00
81822;BME280;72257;52.384;4.882;2024-03-08T03:41:57;66742.75;;;-145.99;100.00
81822;BME280;72257;52.384;4.882;2024-03-08T03:44:22;66516.84;;;-145.99;100.00
81822;BME280;72257;52.384;4.882;2024-03-08T03:46:49;66645.34;;;-145.99;100.00
81822;BME280;72257;52.384;4.882;2024-03-08T03:49:16;66510.63;;;-145.99;100.00
81822;BME280;72257;52.384;4.882;2024-03-08T03:51:42;66850.50;;;-145.99;100.00
81822;BME280;72257;52.384;4.882;2024-03-08T03:54:07;66724.09;;;-145.99;100.00
81822;BME280;72257;52.384;4.882;2024-03-08T03:56:33;67103.38;;;-145.99;100.00
81822;BME280;72257;52.384;4.882;2024-03-08T03:58:58;67072.28;;;-145.99;100.00
81822;BME280;72257;52.384;4.882;2024-03-08T04:01:23;67167.63;;;-145.99;100.00
81822;BME280;72257;52.384;4.882;2024-03-08T04:03:49;67246.38;;;-145.99;100.00
81822;BME280;72257;52.384;4.882;2024-03-08T04:06:14;67008.03;;;-145.99;100.00
81822;BME280;72257;52.384;4.882;2024-03-08T04:08:40;66614.25;;;-145.99;100.00
81822;BME280;72257;52.384;4.882;2024-03-08T04:11:07;66612.19;;;-145.99;100.00
81822;BME280;72257;52.384;4.882;2024-03-08T04:13:34;66407.00;;;-145.99;100.00
81822;BME280;72257;52.384;4.882;2024-03-08T04:15:59;66228.78;;;-145.99;100.00
81822;BME280;72257;52.384;4.882;2024-03-08T04:18:25;66444.31;;;-145.99;100.00
81822;BME280;72257;52.384;4.882;2024-03-08T04:20:50;66757.25;;;-145.99;100.00
81822;BME280;72257;52.384;4.882;2024-03-08T04:23:16;66887.81;;;-145.99;100.00
81822;BME280;72257;52.384;4.882;2024-03-08T04:25:43;67339.66;;;-145.99;100.00
81822;BME280;72257;52.384;4.882;2024-03-08T04:28:08;67347.97;;;-145.99;100.00
81822;BME280;72257;52.384;4.882;2024-03-08T04:30:37;67743.88;;;-145.99;100.00
81822;BME280;72257;52.384;4.882;2024-03-08T04:33:03;67743.88;;;-145.99;100.00
81822;BME280;72257;52.384;4.882;2024-03-08T04:35:29;67944.97;;;-145.99;100.00
81822;BME280;72257;52.384;4.882;2024-03-08T04:37:54;68226.94;;;-145.99;100.00
81822;BME280;72257;52.384;4.882;2024-03-08T04:40:19;68739.06;;;-145.99;100.00
81822;BME280;72257;52.384;4.882;2024-03-08T04:42:45;68635.38;;;-145.99;100.00
81822;BME280;72257;52.384;4.882;2024-03-08T04:45:10;68378.28;;;-145.99;100.00
81822;BME280;72257;52.384;4.882;2024-03-08T04:47:36;68359.63;;;-145.99;100.00
81822;BME280;72257;52.384;4.882;2024-03-08T04:50:02;68390.72;;;-145.99;100.00
81822;BME280;72257;52.384;4.882;2024-03-08T04:52:27;69151.72;;;-145.99;100.00
81822;BME280;72257;52.384;4.882;2024-03-08T04:54:53;69294.81;;;-145.99;100.00
81822;BME280;72257;52.384;4.882;2024-03-08T04:57:19;69143.41;;;-145.99;100.00
81822;BME280;72257;52.384;4.882;2024-03-08T04:59:44;69006.56;;;-145.99;100.00
81822;BME280;72257;52.384;4.882;2024-03-08T05:02:09;68963.00;;;-145.99;100.00
81822;BME280;72257;52.384;4.882;2024-03-08T05:04:36;69002.41;;;-145.99;100.00
81822;BME280;72257;52.384;4.882;2024-03-08T05:07:01;68486.09;;;-145.99;100.00
81822;BME280;72257;52.384;4.882;2024-03-08T05:09:27;68473.66;;;-145.99;100.00
81822;BME280;72257;52.384;4.882;2024-03-08T05:11:57;68438.41;;;-145.99;100.00
81822;BME280;72257;52.384;4.882;2024-03-08T05:14:25;67806.06;;;-145.99;100.00
81822;BME280;72257;52.384;4.882;2024-03-08T05:16:50;67936.69;;;-145.99;100.00
81822;BME280;72257;52.384;4.882;2024-03-08T05:19:16;67553.16;;;-145.99;100.00
81822;BME280;72257;52.384;4.882;2024-03-08T05:21:43;67696.22;;;-145.99;100.00
81822;BME280;72257;52.384;4.882;2024-03-08T05:24:09;68052.78;;;-145.99;100.00
81822;BME280;72257;52.384;4.882;2024-03-08T05:26:35;67594.63;;;-145.99;100.00
81822;BME280;72257;52.384;4.882;2024-03-08T05:29:02;67596.69;;;-145.99;100.00
81822;BME280;72257;52.384;4.882;2024-03-08T05:31:30;67710.72;;;-145.99;100.00
81822;BME280;72257;52.384;4.882;2024-03-08T05:33:58;67911.81;;;-145.99;100.00
81822;BME280;72257;52.384;4.882;2024-03-08T05:36:23;67760.47;;;-145.99;100.00
81822;BME280;72257;52.384;4.882;2024-03-08T05:38:49;67772.91;;;-145.99;100.00
81822;BME280;72257;52.384;4.882;2024-03-08T05:41:16;67571.81;;;-145.99;100.00
81822;BME280;72257;52.384;4.882;2024-03-08T05:43:41;67575.97;;;-145.99;100.00
81822;BME280;72257;52.384;4.882;2024-03-08T05:46:07;67814.38;;;-145.99;100.00
81822;BME280;72257;52.384;4.882;2024-03-08T05:48:32;68282.91;;;-145.99;100.00
81822;BME280;72257;52.384;4.882;2024-03-08T05:50:59;68838.59;;;-145.99;100.00
81822;BME280;72257;52.384;4.882;2024-03-08T05:53:25;68651.97;;;-145.99;100.00
81822;BME280;72257;52.384;4.882;2024-03-08T05:55:50;68340.97;;;-145.99;100.00
81822;BME280;72257;52.384;4.882;2024-03-08T05:58:15;68210.34;;;-145.99;100.00
81822;BME280;72257;52.384;4.882;2024-03-08T06:00:41;68191.69;;;-145.99;100.00
81822;BME280;72257;52.384;4.882;2024-03-08T06:03:06;68152.28;;;-145.99;100.00
81822;BME280;72257;52.384;4.882;2024-03-08T06:05:32;68226.94;;;-145.99;100.00
81822;BME280;72257;52.384;4.882;2024-03-08T06:07:58;67992.66;;;-145.99;100.00
81822;BME280;72257;52.384;4.882;2024-03-08T06:10:24;67314.78;;;-145.99;100.00
81822;BME280;72257;52.384;4.882;2024-03-08T06:12:49;67030.84;;;-145.99;100.00
81822;BME280;72257;52.384;4.882;2024-03-08T06:15:16;66981.09;;;-145.99;100.00
81822;BME280;72257;52.384;4.882;2024-03-08T06:17:42;66728.22;;;-145.99;100.00
81822;BME280;72257;52.384;4.882;2024-03-08T06:20:07;66496.13;;;-145.99;100.00
81822;BME280;72257;52.384;4.882;2024-03-08T06:22:42;66210.16;;;-145.99;100.00
81822;BME280;72257;52.384;4.882;2024-03-08T06:25:08;66251.59;;;-145.99;100.00
81822;BME280;72257;52.384;4.882;2024-03-08T06:27:33;66065.09;;;-145.99;100.00
81822;BME280;72257;52.384;4.882;2024-03-08T06:30:00;66114.81;;;-145.99;100.00
81822;BME280;72257;52.384;4.882;2024-03-08T06:32:25;65932.47;;;-145.99;100.00
81822;BME280;72257;52.384;4.882;2024-03-08T06:34:51;65665.19;;;-145.99;100.00
81822;BME280;72257;52.384;4.882;2024-03-08T06:37:16;65356.47;;;-145.99;100.00
81822;BME280;72257;52.384;4.882;2024-03-08T06:39:47;65190.75;;;-145.99;100.00
81822;BME280;72257;52.384;4.882;2024-03-08T06:42:13;65273.63;;;-145.99;100.00
81822;BME280;72257;52.384;4.882;2024-03-08T06:44:38;64863.44;;;-145.99;100.00
81822;BME280;72257;52.384;4.882;2024-03-08T06:47:10;64517.50;;;-145.99;100.00
81822;BME280;72257;52.384;4.882;2024-03-08T06:49:36;64699.78;;;-145.99;100.00
81822;BME280;72257;52.384;4.882;2024-03-08T06:52:01;64490.56;;;-145.99;100.00
81822;BME280;72257;52.384;4.882;2024-03-08T06:54:26;64362.16;;;-145.99;100.00
81822;BME280;72257;52.384;4.882;2024-03-08T06:56:52;64084.63;;;-145.99;100.00
81822;BME280;72257;52.384;4.882;2024-03-08T06:59:17;63827.81;;;-145.99;100.00
81822;BME280;72257;52.384;4.882;2024-03-08T07:01:43;63550.31;;;-145.99;100.00
81822;BME280;72257;52.384;4.882;2024-03-08T07:04:08;63674.56;;;-145.99;100.00
81822;BME280;72257;52.384;4.882;2024-03-08T07:06:34;63620.72;;;-145.99;100.00
81822;BME280;72257;52.384;4.882;2024-03-08T07:08:59;63589.66;;;-145.99;100.00
81822;BME280;72257;52.384;4.882;2024-03-08T07:11:25;63231.41;;;-145.99;100.00
81822;BME280;72257;52.384;4.882;2024-03-08T07:13:50;63299.75;;;-145.99;100.00
81822;BME280;72257;52.384;4.882;2024-03-08T07:16:15;63185.84;;;-145.99;100.00
81822;BME280;72257;52.384;4.882;2024-03-08T07:18:41;62958.09;;;-145.99;100.00
81822;BME280;72257;52.384;4.882;2024-03-08T07:21:09;62684.78;;;-145.99;100.00
81822;BME280;72257;52.384;4.882;2024-03-08T07:23:35;62519.16;;;-145.99;100.00
81822;BME280;72257;52.384;4.882;2024-03-08T07:26:27;62475.69;;;-145.99;100.00
81822;BME280;72257;52.384;4.882;2024-03-08T07:28:53;62330.75;;;-145.99;100.00
81822;BME280;72257;52.384;4.882;2024-03-08T07:31:22;62001.63;;;-145.99;100.00
81822;BME280;72257;52.384;4.882;2024-03-08T07:33:50;62049.22;;;-145.99;100.00
81822;BME280;72257;52.384;4.882;2024-03-08T07:36:16;61929.16;;;-145.99;100.00
81822;BME280;72257;52.384;4.882;2024-03-08T07:38:41;61945.72;;;-145.99;100.00
81822;BME280;72257;52.384;4.882;2024-03-08T07:41:06;61993.34;;;-145.99;100.00
81822;BME280;72257;52.384;4.882;2024-03-08T07:43:32;61873.28;;;-145.99;100.00
81822;BME280;72257;52.384;4.882;2024-03-08T07:46:00;61802.91;;;-145.99;100.00
81822;BME280;72257;52.384;4.882;2024-03-08T07:48:25;61753.22;;;-145.99;100.00
81822;BME280;72257;52.384;4.882;2024-03-08T07:50:52;61693.19;;;-145.99;100.00
81822;BME280;72257;52.384;4.882;2024-03-08T07:53:17;61674.56;;;-145.99;100.00
81822;BME280;72257;52.384;4.882;2024-03-08T07:55:42;61728.38;;;-145.99;100.00
81822;BME280;72257;52.384;4.882;2024-03-08T07:58:09;61585.56;;;-145.99;100.00
81822;BME280;72257;52.384;4.882;2024-03-08T08:00:36;61428.25;;;-145.99;100.00
81822;BME280;72257;52.384;4.882;2024-03-08T08:03:02;61289.59;;;-145.99;100.00
81822;BME280;72257;52.384;4.882;2024-03-08T08:05:27;61148.84;;;-145.99;100.00
81822;BME280;72257;52.384;4.882;2024-03-08T08:07:53;61026.75;;;-145.99;100.00
81822;BME280;72257;52.384;4.882;2024-03-08T08:10:19;60892.22;;;-145.99;100.00
81822;BME280;72257;52.384;4.882;2024-03-08T08:12:49;60892.22;;;-145.99;100.00
81822;BME280;72257;52.384;4.882;2024-03-08T08:15:15;60809.47;;;-145.99;100.00
81822;BME280;72257;52.384;4.882;2024-03-08T08:17:42;60778.41;;;-145.99;100.00
81822;BME280;72257;52.384;4.882;2024-03-08T08:20:08;60811.53;;;-145.99;100.00
81822;BME280;72257;52.384;4.882;2024-03-08T08:22:34;60900.50;;;-145.99;100.00
81822;BME280;72257;52.384;4.882;2024-03-08T08:24:59;60850.84;;;-145.99;100.00
81822;BME280;72257;52.384;4.882;2024-03-08T08:27:25;60823.94;;;-145.99;100.00
81822;BME280;72257;52.384;4.882;2024-03-08T08:29:51;60759.78;;;-145.99;100.00
81822;BME280;72257;52.384;4.882;2024-03-08T08:32:16;60685.28;;;-145.99;100.00
81822;BME280;72257;52.384;4.882;2024-03-08T08:34:44;60641.84;;;-145.99;100.00
81822;BME280;72257;52.384;4.882;2024-03-08T08:37:09;60656.31;;;-145.99;100.00
81822;BME280;72257;52.384;4.882;2024-03-08T08:39:35;60710.13;;;-145.99;100.00
81822;BME280;72257;52.384;4.882;2024-03-08T08:42:00;60689.44;;;-145.99;100.00
81822;BME280;72257;52.384;4.882;2024-03-08T08:44:26;60701.84;;;-145.99;100.00
81822;BME280;72257;52.384;4.882;2024-03-08T08:46:52;60710.13;;;-145.99;100.00
81822;BME280;72257;52.384;4.882;2024-03-08T08:49:18;60701.84;;;-145.99;100.00
81822;BME280;72257;52.384;4.882;2024-03-08T08:51:51;60540.44;;;-145.99;100.00
81822;BME280;72257;52.384;4.882;2024-03-08T08:54:16;60523.88;;;-145.99;100.00
81822;BME280;72257;52.384;4.882;2024-03-08T08:56:42;60428.69;;;-145.99;100.00
81822;BME280;72257;52.384;4.882;2024-03-08T08:59:09;60350.06;;;-145.99;100.00
81822;BME280;72257;52.384;4.882;2024-03-08T09:01:34;60403.88;;;-145.99;100.00
81822;BME280;72257;52.384;4.882;2024-03-08T09:04:00;60455.59;;;-145.99;100.00
81822;BME280;72257;52.384;4.882;2024-03-08T09:06:25;60416.28;;;-145.99;100.00
81822;BME280;72257;52.384;4.882;2024-03-08T09:08:51;60199.03;;;-145.99;100.00
81822;BME280;72257;52.384;4.882;2024-03-08T09:11:16;60174.19;;;-145.99;100.00
81822;BME280;72257;52.384;4.882;2024-03-08T09:13:44;60165.91;;;-145.99;100.00
81822;BME280;72257;52.384;4.882;2024-03-08T09:16:11;60093.50;;;-145.99;100.00
81822;BME280;72257;52.384;4.882;2024-03-08T09:18:36;60099.72;;;-145.99;100.00
81822;BME280;72257;52.384;4.882;2024-03-08T09:21:02;60145.22;;;-145.99;100.00
81822;BME280;72257;52.384;4.882;2024-03-08T09:23:28;60087.28;;;-145.99;100.00
81822;BME280;72257;52.384;4.882;2024-03-08T09:25:58;60076.94;;;-145.99;100.00
81822;BME280;72257;52.384;4.882;2024-03-08T09:28:23;60110.06;;;-145.99;100.00
81822;BME280;72257;52.384;4.882;2024-03-08T09:30:50;60081.09;;;-145.99;100.00
81822;BME280;72257;52.384;4.882;2024-03-08T09:33:15;60085.22;;;-145.99;100.00
81822;BME280;72257;52.384;4.882;2024-03-08T09:35:45;60143.16;;;-145.99;100.00
81822;BME280;72257;52.384;4.882;2024-03-08T09:38:12;60114.19;;;-145.99;100.00
81822;BME280;72257;52.384;4.882;2024-03-08T09:40:41;60083.16;;;-145.99;100.00
81822;BME280;72257;52.384;4.882;2024-03-08T09:43:07;60054.19;;;-145.99;100.00
81822;BME280;72257;52.384;4.882;2024-03-08T09:45:36;60083.16;;;-145.99;100.00
81822;BME280;72257;52.384;4.882;2024-03-08T09:48:08;60087.28;;;-145.99;100.00
81822;BME280;72257;52.384;4.882;2024-03-08T09:50:36;60099.72;;;-145.99;100.00
81822;BME280;72257;52.384;4.882;2024-03-08T09:53:01;60126.59;;;-145.99;100.00
81822;BME280;72257;52.384;4.882;2024-03-08T09:55:28;60095.56;;;-145.99;100.00
81822;BME280;72257;52.384;4.882;2024-03-08T09:58:00;59975.56;;;-145.99;100.00
81822;BME280;72257;52.384;4.882;2024-03-08T10:00:45;59907.28;;;-145.99;100.00
81822;BME280;72257;52.384;4.882;2024-03-08T10:03:11;60047.97;;;-145.99;100.00
81822;BME280;72257;52.384;4.882;2024-03-08T10:05:39;60108.00;;;-145.99;100.00
81822;BME280;72257;52.384;4.882;2024-03-08T10:08:05;60006.59;;;-145.99;100.00
81822;BME280;72257;52.384;4.882;2024-03-08T10:10:34;59985.91;;;-145.99;100.00
81822;BME280;72257;52.384;4.882;2024-03-08T10:12:59;59907.28;;;-145.99;100.00
81822;BME280;72257;52.384;4.882;2024-03-08T10:15:27;59923.84;;;-145.99;100.00
81822;BME280;72257;52.384;4.882;2024-03-08T10:17:58;59925.91;;;-145.99;100.00
81822;BME280;72257;52.384;4.882;2024-03-08T10:20:24;60035.56;;;-145.99;100.00
81822;BME280;72257;52.384;4.882;2024-03-08T10:22:49;60099.72;;;-145.99;100.00
81822;BME280;72257;52.384;4.882;2024-03-08T10:25:16;60012.81;;;-145.99;100.00
81822;BME280;72257;52.384;4.882;2024-03-08T10:27:42;59975.56;;;-145.99;100.00
81822;BME280;72257;52.384;4.882;2024-03-08T10:30:14;59994.19;;;-145.99;100.00
81822;BME280;72257;52.384;4.882;2024-03-08T10:32:40;59932.13;;;-145.99;100.00
81822;BME280;72257;52.384;4.882;2024-03-08T10:35:07;59940.41;;;-145.99;100.00
81822;BME280;72257;52.384;4.882;2024-03-08T10:37:40;59917.63;;;-145.99;100.00
81822;BME280;72257;52.384;4.882;2024-03-08T10:40:10;59888.69;;;-145.99;100.00
81822;BME280;72257;52.384;4.882;2024-03-08T10:42:50;59874.19;;;-145.99;100.00
81822;BME280;72257;52.384;4.882;2024-03-08T10:45:26;59886.59;;;-145.99;100.00
81822;BME280;72257;52.384;4.882;2024-03-08T10:50:28;59861.78;;;-145.99;100.00
81822;BME280;72257;52.384;4.882;2024-03-08T10:52:57;59816.25;;;-145.99;100.00
81822;BME280;72257;52.384;4.882;2024-03-08T10:55:24;59704.53;;;-145.99;100.00
81822;BME280;72257;52.384;4.882;2024-03-08T10:57:51;59706.63;;;-145.99;100.00
81822;BME280;72257;52.384;4.882;2024-03-08T11:00:18;59721.09;;;-145.99;100.00
81822;BME280;72257;52.384;4.882;2024-03-08T11:02:51;59739.72;;;-145.99;100.00
81822;BME280;72257;52.384;4.882;2024-03-08T11:05:37;59772.81;;;-145.99;100.00
81822;BME280;72257;52.384;4.882;2024-03-08T11:10:53;59768.69;;;-145.99;100.00
81822;BME280;72257;52.384;4.882;2024-03-08T11:13:40;59743.84;;;-145.99;100.00
81822;BME280;72257;52.384;4.882;2024-03-08T11:16:20;59694.19;;;-145.99;100.00
81822;BME280;72257;52.384;4.882;2024-03-08T11:21:36;59640.41;;;-145.99;100.00
81822;BME280;72257;52.384;4.882;2024-03-08T11:24:13;59663.16;;;-145.99;100.00
81822;BME280;72257;52.384;4.882;2024-03-08T11:26:39;59659.03;;;-145.99;100.00
81822;BME280;72257;52.384;4.882;2024-03-08T11:31:52;59625.94;;;-145.99;100.00
81822;BME280;72257;52.384;4.882;2024-03-08T11:34:19;59574.22;;;-145.99;100.00
81822;BME280;72257;52.384;4.882;2024-03-08T11:36:48;59594.91;;;-145.99;100.00
81822;BME280;72257;52.384;4.882;2024-03-08T11:39:13;59632.13;;;-145.99;100.00
81822;BME280;72257;52.384;4.882;2024-03-08T11:41:40;59611.44;;;-145.99;100.00
81822;BME280;72257;52.384;4.882;2024-03-08T11:44:06;59632.13;;;-145.99;100.00
81822;BME280;72257;52.384;4.882;2024-03-08T11:46:33;59648.69;;;-145.99;100.00
81822;BME280;72257;52.384;4.882;2024-03-08T11:48:59;59605.25;;;-145.99;100.00
81822;BME280;72257;52.384;4.882;2024-03-08T11:51:26;59603.16;;;-145.99;100.00
81822;BME280;72257;52.384;4.882;2024-03-08T11:53:52;59576.28;;;-145.99;100.00
81822;BME280;72257;52.384;4.882;2024-03-08T11:56:17;59625.94;;;-145.99;100.00
81822;BME280;72257;52.384;4.882;2024-03-08T11:58:53;59603.16;;;-145.99;100.00
81822;BME280;72257;52.384;4.882;2024-03-08T12:01:22;59625.94;;;-145.99;100.00
81822;BME280;72257;52.384;4.882;2024-03-08T12:03:56;59592.81;;;-145.99;100.00
81822;BME280;72257;52.384;4.882;2024-03-08T12:06:25;59634.22;;;-145.99;100.00
81822;BME280;72257;52.384;4.882;2024-03-08T12:08:52;59574.22;;;-145.99;100.00
81822;BME280;72257;52.384;4.882;2024-03-08T12:11:19;59526.63;;;-145.99;100.00
81822;BME280;72257;52.384;4.882;2024-03-08T12:13:48;59534.91;;;-145.99;100.00
81822;BME280;72257;52.384;4.882;2024-03-08T12:16:16;59543.19;;;-145.99;100.00
81822;BME280;72257;52.384;4.882;2024-03-08T12:18:44;59563.88;;;-145.99;100.00
81822;BME280;72257;52.384;4.882;2024-03-08T12:21:11;59553.53;;;-145.99;100.00
81822;BME280;72257;52.384;4.882;2024-03-08T12:23:38;59584.56;;;-145.99;100.00
81822;BME280;72257;52.384;4.882;2024-03-08T12:26:18;59613.53;;;-145.99;100.00
81822;BME280;72257;52.384;4.882;2024-03-08T12:28:45;59605.25;;;-145.99;100.00
81822;BME280;72257;52.384;4.882;2024-03-08T12:31:14;59518.34;;;-145.99;100.00
81822;BME280;72257;52.384;4.882;2024-03-08T12:33:55;59510.06;;;-145.99;100.00
81822;BME280;72257;52.384;4.882;2024-03-08T12:36:24;59584.56;;;-145.99;100.00
81822;BME280;72257;52.384;4.882;2024-03-08T12:38:50;59551.44;;;-145.99;100.00